Flight Track Log - Related Links

Times and Time Zones

All times are in EDT time to prevent confusion due to time zone crossing. See the AWE1940 flight status page for this flight to view local times or setup timezone preferences in your user account.

Time Position Orientation Groundspeed Altitude Reporting Facility
EDT Latitude Longitude Course Direction KTS MPH feet Rate Location/Type
Sat 10:24:52 PM 35.1928 -80.9331 72° East 157 181 1,700  Level Atlanta Center
Sat 10:25:41 PM 35.1489 -80.9297 176° South 195 224 3,000 1,817 Climbing Atlanta Center
Sat 10:26:41 PM 35.1014 -80.8706 134° Southeast 268 308 5,000 2,571 Climbing Atlanta Center
Sat 10:28:00 PM 35.2502 -80.5309 30° Northeast  Level FlightAware
Sat 10:28:08 PM 35.1042 -80.7308 89° East 307 353 9,300  Level Atlanta Center
Sat 10:29:00 PM 35.3379 -80.4493 72° East  Level FlightAware
Sat 10:29:08 PM 35.1328 -80.6306 71° East 302 348 11,400  Level Atlanta Center
Sat 10:30:00 PM 35.3755 -80.3068 72° East  Level FlightAware
Sat 10:30:08 PM 35.2186 -80.5711 29° Northeast 307 353 14,600  Level Atlanta Center
Sat 10:31:08 PM 35.3086 -80.5061 31° Northeast 341 392 17,200 2,421 Climbing Atlanta Center
Sat 10:32:59 PM 35.3875 -80.2953 65° Northeast 413 475 21,500 2,308 Climbing Washington Center
Sat 10:33:57 PM 35.4264 -80.1572 71° East 425 489 23,700 2,339 Climbing Washington Center
Sat 10:34:57 PM 35.4694 -80.0092 70° East 425 489 26,100 1,983 Climbing Washington Center
Sat 10:35:58 PM 35.5042 -79.8581 74° East 443 510 27,700 1,426 Climbing Washington Center
Sat 10:36:59 PM 35.5450 -79.7069 72° East 465 535 29,000 655 Climbing Washington Center
Sat 10:37:57 PM 35.5919 -79.5486 70° East 490 564 29,000  Level Washington Center
Sat 10:38:57 PM 35.6606 -79.4267 55° Northeast 477 549 29,000  Level Washington Center
Sat 10:39:59 PM 35.7486 -79.2850 53° Northeast 477 549 29,000  Level Washington Center
Sat 10:40:59 PM 35.8297 -79.1531 53° Northeast 477 549 29,000  Level Washington Center
Sat 10:41:57 PM 35.9108 -79.0208 53° Northeast 477 549 29,000  Level Washington Center
Sat 10:42:58 PM 35.9897 -78.8881 54° Northeast 477 549 29,000  Level Washington Center
Sat 10:43:58 PM 36.0706 -78.7553 53° Northeast 477 549 29,000  Level Washington Center
Sat 10:44:57 PM 36.1492 -78.6222 54° Northeast 477 549 29,000  Level Washington Center
Sat 10:45:58 PM 36.2294 -78.4889 53° Northeast 477 549 29,000  Level Washington Center
Sat 10:46:59 PM 36.3119 -78.3528 53° Northeast 477 549 29,000  Level Washington Center
Sat 10:47:57 PM 36.3772 -78.2439 53° Northeast 477 549 29,000  Level Washington Center
Sat 10:48:59 PM 36.4967 -78.1111 42° Northeast 477 549 29,000  Level Washington Center
Sat 10:49:57 PM 36.6031 -78.0111 37° Northeast 471 542 29,000  Level Washington Center
Sat 10:50:57 PM 36.7117 -77.9108 36° Northeast 477 549 29,000 -50 Level Washington Center
Sat 10:51:58 PM 36.8200 -77.8078 37° Northeast 477 549 28,900  Descending Washington Center
Sat 10:52:58 PM 36.9281 -77.7119 35° Northeast 482 555 29,000 50 Climbing Washington Center
Sat 10:53:59 PM 37.0361 -77.6083 37° Northeast 482 555 29,000  Level Washington Center
Sat 10:54:57 PM 37.1442 -77.5094 36° Northeast 482 555 29,000  Level Washington Center
Sat 10:55:58 PM 37.2522 -77.4078 37° Northeast 482 555 29,000  Level Washington Center
Sat 10:56:58 PM 37.3622 -77.3058 36° Northeast 482 555 29,000  Level Washington Center
Sat 10:57:59 PM 37.4722 -77.2011 37° Northeast 482 555 29,000  Level Washington Center
Sat 10:58:59 PM 37.5861 -77.0961 36° Northeast 488 562 29,000  Level Washington Center
Sat 10:59:58 PM 37.6939 -76.9881 38° Northeast 488 562 29,000  Level Washington Center
Sat 11:00:58 PM 37.7822 -76.9028 37° Northeast 488 562 29,000  Level Washington Center
Sat 11:01:59 PM 37.9003 -76.7892 37° Northeast 493 567 29,000  Level Washington Center
Sat 11:02:57 PM 38.0244 -76.6725 36° Northeast 499 574 29,000  Level Washington Center
Sat 11:03:57 PM 38.1339 -76.5633 38° Northeast 494 568 29,000 -50 Level Washington Center
Sat 11:04:57 PM 38.2453 -76.4564 37° Northeast 494 568 28,900  Descending Washington Center
Sat 11:05:57 PM 38.3417 -76.3647 37° Northeast 494 568 29,000 50 Climbing Washington Center
Sat 11:06:57 PM 38.4508 -76.2572 38° Northeast 494 568 29,000 1,008 Level Washington Center
Sat 11:07:56 PM 38.5744 -76.1308 39° Northeast 499 574 31,000 900 Climbing Washington Center
Sat 11:08:57 PM 38.6894 -76.0278 35° Northeast 509 586 30,800 -49 Descending Washington Center
Sat 11:09:58 PM 38.8025 -75.9114 39° Northeast 514 592 30,900 50 Climbing Washington Center
Sat 11:10:57 PM 38.9153 -75.8050 36° Northeast 508 585 30,900  Level Washington Center
Sat 11:11:58 PM 39.0258 -75.6906 39° Northeast 508 585 30,900  Level Washington Center
Sat 11:12:58 PM 39.1364 -75.5783 38° Northeast 508 585 30,900 -101 Level Washington Center
Sat 11:13:57 PM 39.2467 -75.4683 38° Northeast 508 585 30,700 -595 Descending Washington Center
Sat 11:14:59 PM 39.3550 -75.3608 37° Northeast 503 579 29,700 -900 Descending Washington Center
Sat 11:15:57 PM 39.4608 -75.2528 38° Northeast 503 579 28,900 -294 Descending Washington Center
Sat 11:17:42 PM 39.6411 -75.0681 38° Northeast 461 531 28,900  Level New Center
Sat 11:18:41 PM 39.7475 -74.9558 39° Northeast 466 536 28,900 50 Level New Center
Sat 11:19:43 PM 39.8447 -74.8561 38° Northeast 461 531 29,000 50 Climbing New Center
Sat 11:20:42 PM 39.9400 -74.7561 39° Northeast 472 543 29,000  Level New Center
Sat 11:21:41 PM 40.0414 -74.6508 38° Northeast 467 537 29,000  Level New Center
Sat 11:22:42 PM 40.1428 -74.5478 38° Northeast 462 532 29,000  Level New Center
Sat 11:23:42 PM 40.2442 -74.4419 39° Northeast 462 532 29,000  Level New Center
Sat 11:24:41 PM 40.3564 -74.3769 24° Northeast 462 532 29,000  Level New Center
Sat 11:25:41 PM 40.4803 -74.3481 10° North 440 506 29,000  Level New Center
Sat 11:26:42 PM 40.6042 -74.3189 10° North 440 506 29,000 -34 Level New Center
Sat 11:28:35 PM 40.8456 -74.2675 North 443 510 28,900 -139 Descending Boston Center
Sat 11:29:35 PM 40.9669 -74.2378 10° North 438 504 28,600 -600 Descending Boston Center
Sat 11:30:35 PM 41.0903 -74.2083 10° North 438 504 27,700 -950 Descending Boston Center
Sat 11:31:35 PM 41.2136 -74.1811 North 444 511 26,700 -900 Descending Boston Center
Sat 11:32:35 PM 41.3206 -74.1483 13° North 444 511 25,900 -350 Descending Boston Center
Sat 11:33:35 PM 41.4458 -74.1211 North 444 511 26,000 -350 Climbing Boston Center
Sat 11:34:35 PM 41.5839 -74.0886 10° North 452 520 25,200 -850 Descending Boston Center
Sat 11:35:35 PM 41.7072 -74.0586 10° North 452 520 24,300 -1,750 Descending Boston Center
Sat 11:36:35 PM 41.8139 -74.0361 North 447 514 21,700 -2,850 Descending Boston Center
Sat 11:37:35 PM 41.9311 -74.0056 11° North 437 503 18,600 -3,184 Descending Boston Center
Sat 11:38:13 PM 42.0167 -73.9853 10° North 416 479 16,500 -3,200 Descending Boston Center
Sat 11:38:35 PM 42.0564 -73.9781 North 417 480 15,400 -3,455 Descending Boston Center
Sat 11:39:19 PM 42.1339 -73.9519 14° North 405 466 12,700 -3,400 Descending Boston Center
Sat 11:39:35 PM 42.1653 -73.9414 14° North 406 467 12,000 -1,672 Descending Boston Center
Sat 11:40:20 PM 42.2344 -73.9178 14° North 357 411 11,000 -1,300 Descending Boston Center
Sat 11:40:35 PM 42.2597 -73.9044 21° North 373 429 10,700 -1,770 Descending Boston Center
Sat 11:41:21 PM 42.3267 -73.8836 13° North 294 338 9,200 -2,094 Descending Boston Center
Sat 11:42:21 PM 42.4061 -73.8544 15° North 289 333 7,000 -1,785 Descending Boston Center
Sat 11:43:22 PM 42.4772 -73.8306 14° North 267 307 5,600 -1,377 Descending Boston Center
Sat 11:44:23 PM 42.5339 -73.8039 19° North 207 238 4,200 -1,190 Descending Boston Center
Sat 11:45:23 PM 42.5839 -73.7992 North 164 189 3,200 -1,000 Descending Boston Center

Login

Don't have an account? Register now (free) for customized features, flight alerts, and more!